sensor_id;sensor_type;location;lat;lon;timestamp;temperature;humidity
14397;DHT22;50653;47.810;13.022;2024-03-17T00:00:59;9.50;99.90
14397;DHT22;50653;47.810;13.022;2024-03-17T00:03:25;9.50;99.90
14397;DHT22;50653;47.810;13.022;2024-03-17T00:05:58;9.50;99.90
14397;DHT22;50653;47.810;13.022;2024-03-17T00:08:24;9.60;99.90
14397;DHT22;50653;47.810;13.022;2024-03-17T00:10:51;9.70;99.90
14397;DHT22;50653;47.810;13.022;2024-03-17T00:13:17;9.70;99.90
14397;DHT22;50653;47.810;13.022;2024-03-17T00:15:43;9.70;99.90
14397;DHT22;50653;47.810;13.022;2024-03-17T00:18:13;9.60;99.90
14397;DHT22;50653;47.810;13.022;2024-03-17T00:20:38;9.60;99.90
14397;DHT22;50653;47.810;13.022;2024-03-17T00:23:04;9.60;99.90
14397;DHT22;50653;47.810;13.022;2024-03-17T00:25:35;9.50;99.90
14397;DHT22;50653;47.810;13.022;2024-03-17T00:28:04;9.50;99.90
14397;DHT22;50653;47.810;13.022;2024-03-17T00:30:30;9.50;99.90
14397;DHT22;50653;47.810;13.022;2024-03-17T00:32:57;9.60;99.90
14397;DHT22;50653;47.810;13.022;2024-03-17T00:35:24;9.70;99.90
14397;DHT22;50653;47.810;13.022;2024-03-17T00:37:50;9.70;99.90
14397;DHT22;50653;47.810;13.022;2024-03-17T00:40:17;9.60;99.90
14397;DHT22;50653;47.810;13.022;2024-03-17T00:42:43;9.70;99.90
14397;DHT22;50653;47.810;13.022;2024-03-17T00:45:13;9.70;99.90
14397;DHT22;50653;47.810;13.022;2024-03-17T00:47:39;9.80;99.90
14397;DHT22;50653;47.810;13.022;2024-03-17T00:50:05;9.80;99.90
14397;DHT22;50653;47.810;13.022;2024-03-17T00:52:34;9.80;99.90
14397;DHT22;50653;47.810;13.022;2024-03-17T00:55:00;9.80;99.90
14397;DHT22;50653;47.810;13.022;2024-03-17T00:57:26;9.80;99.90
14397;DHT22;50653;47.810;13.022;2024-03-17T00:59:52;9.80;99.90
14397;DHT22;50653;47.810;13.022;2024-03-17T01:02:18;9.80;99.90
14397;DHT22;50653;47.810;13.022;2024-03-17T01:04:44;9.90;99.90
14397;DHT22;50653;47.810;13.022;2024-03-17T01:07:11;9.90;99.90
14397;DHT22;50653;47.810;13.022;2024-03-17T01:09:37;9.80;99.90
14397;DHT22;50653;47.810;13.022;2024-03-17T01:12:03;9.70;99.90
14397;DHT22;50653;47.810;13.022;2024-03-17T01:14:30;9.70;99.90
14397;DHT22;50653;47.810;13.022;2024-03-17T01:16:56;9.60;99.90
14397;DHT22;50653;47.810;13.022;2024-03-17T01:19:23;9.60;99.90
14397;DHT22;50653;47.810;13.022;2024-03-17T01:21:48;9.60;99.90
14397;DHT22;50653;47.810;13.022;2024-03-17T01:24:14;9.50;99.90
14397;DHT22;50653;47.810;13.022;2024-03-17T01:26:40;9.50;99.90
14397;DHT22;50653;47.810;13.022;2024-03-17T01:29:06;9.50;99.90
14397;DHT22;50653;47.810;13.022;2024-03-17T01:31:34;9.40;99.90
14397;DHT22;50653;47.810;13.022;2024-03-17T01:34:00;9.30;99.90
14397;DHT22;50653;47.810;13.022;2024-03-17T01:36:26;9.50;99.90
14397;DHT22;50653;47.810;13.022;2024-03-17T01:38:52;9.50;99.90
14397;DHT22;50653;47.810;13.022;2024-03-17T01:41:18;9.60;99.90
14397;DHT22;50653;47.810;13.022;2024-03-17T01:43:43;9.70;99.90
14397;DHT22;50653;47.810;13.022;2024-03-17T01:46:15;9.70;99.90
14397;DHT22;50653;47.810;13.022;2024-03-17T01:48:41;9.70;99.90
14397;DHT22;50653;47.810;13.022;2024-03-17T01:51:08;9.70;99.90
14397;DHT22;50653;47.810;13.022;2024-03-17T01:53:36;9.70;99.90
14397;DHT22;50653;47.810;13.022;2024-03-17T01:56:02;9.70;99.90
14397;DHT22;50653;47.810;13.022;2024-03-17T01:58:30;9.70;99.90
14397;DHT22;50653;47.810;13.022;2024-03-17T02:00:56;9.70;99.90
14397;DHT22;50653;47.810;13.022;2024-03-17T02:03:22;9.70;99.90
14397;DHT22;50653;47.810;13.022;2024-03-17T02:05:48;9.70;99.90
14397;DHT22;50653;47.810;13.022;2024-03-17T02:08:14;9.70;99.90
14397;DHT22;50653;47.810;13.022;2024-03-17T02:10:40;9.80;99.90
14397;DHT22;50653;47.810;13.022;2024-03-17T02:13:05;9.70;99.90
14397;DHT22;50653;47.810;13.022;2024-03-17T02:15:33;9.60;99.90
14397;DHT22;50653;47.810;13.022;2024-03-17T02:17:58;9.60;99.90
14397;DHT22;50653;47.810;13.022;2024-03-17T02:20:24;9.60;99.90
14397;DHT22;50653;47.810;13.022;2024-03-17T02:23:10;9.70;99.90
14397;DHT22;50653;47.810;13.022;2024-03-17T02:25:36;9.60;99.90
14397;DHT22;50653;47.810;13.022;2024-03-17T02:28:02;9.70;99.90
14397;DHT22;50653;47.810;13.022;2024-03-17T02:30:28;9.70;99.90
14397;DHT22;50653;47.810;13.022;2024-03-17T02:32:54;9.70;99.90
14397;DHT22;50653;47.810;13.022;2024-03-17T02:35:26;9.70;99.90
14397;DHT22;50653;47.810;13.022;2024-03-17T02:37:51;9.70;99.90
14397;DHT22;50653;47.810;13.022;2024-03-17T02:40:17;9.70;99.90
14397;DHT22;50653;47.810;13.022;2024-03-17T02:42:44;9.70;99.90
14397;DHT22;50653;47.810;13.022;2024-03-17T02:45:11;9.80;99.90
14397;DHT22;50653;47.810;13.022;2024-03-17T02:47:40;9.80;99.90
14397;DHT22;50653;47.810;13.022;2024-03-17T02:50:07;9.60;99.90
14397;DHT22;50653;47.810;13.022;2024-03-17T02:52:33;9.60;99.90
14397;DHT22;50653;47.810;13.022;2024-03-17T02:54:59;9.70;99.90
14397;DHT22;50653;47.810;13.022;2024-03-17T02:57:26;9.70;99.90
14397;DHT22;50653;47.810;13.022;2024-03-17T02:59:55;9.70;99.90
14397;DHT22;50653;47.810;13.022;2024-03-17T03:02:22;9.70;99.90
14397;DHT22;50653;47.810;13.022;2024-03-17T03:04:47;9.70;99.90
14397;DHT22;50653;47.810;13.022;2024-03-17T03:07:13;9.80;99.90
14397;DHT22;50653;47.810;13.022;2024-03-17T03:09:39;9.70;99.90
14397;DHT22;50653;47.810;13.022;2024-03-17T03:12:05;9.70;99.90
14397;DHT22;50653;47.810;13.022;2024-03-17T03:14:33;9.60;99.90
14397;DHT22;50653;47.810;13.022;2024-03-17T03:16:59;9.50;99.90
14397;DHT22;50653;47.810;13.022;2024-03-17T03:19:26;9.50;99.90
14397;DHT22;50653;47.810;13.022;2024-03-17T03:21:51;9.30;99.90
14397;DHT22;50653;47.810;13.022;2024-03-17T03:24:18;9.30;99.90
14397;DHT22;50653;47.810;13.022;2024-03-17T03:26:44;9.30;99.90
14397;DHT22;50653;47.810;13.022;2024-03-17T03:29:10;9.20;99.90
14397;DHT22;50653;47.810;13.022;2024-03-17T03:31:36;9.20;99.90
14397;DHT22;50653;47.810;13.022;2024-03-17T03:34:04;9.10;99.90
14397;DHT22;50653;47.810;13.022;2024-03-17T03:36:34;9.20;99.90
14397;DHT22;50653;47.810;13.022;2024-03-17T03:39:00;9.20;99.90
14397;DHT22;50653;47.810;13.022;2024-03-17T03:41:26;9.20;99.90
14397;DHT22;50653;47.810;13.022;2024-03-17T03:43:52;8.90;99.90
14397;DHT22;50653;47.810;13.022;2024-03-17T03:46:18;8.90;99.90
14397;DHT22;50653;47.810;13.022;2024-03-17T03:48:44;9.00;99.90
14397;DHT22;50653;47.810;13.022;2024-03-17T03:51:10;9.10;99.90
14397;DHT22;50653;47.810;13.022;2024-03-17T03:53:36;9.00;99.90
14397;DHT22;50653;47.810;13.022;2024-03-17T03:56:04;9.00;99.90
14397;DHT22;50653;47.810;13.022;2024-03-17T03:58:35;9.10;99.90
14397;DHT22;50653;47.810;13.022;2024-03-17T04:01:08;9.20;99.90
14397;DHT22;50653;47.810;13.022;2024-03-17T04:03:35;9.00;99.90
14397;DHT22;50653;47.810;13.022;2024-03-17T04:06:07;9.00;99.90
14397;DHT22;50653;47.810;13.022;2024-03-17T04:08:33;9.00;99.90
14397;DHT22;50653;47.810;13.022;2024-03-17T04:11:00;9.00;99.90
14397;DHT22;50653;47.810;13.022;2024-03-17T04:13:30;9.10;99.90
14397;DHT22;50653;47.810;13.022;2024-03-17T04:15:56;9.00;99.90
14397;DHT22;50653;47.810;13.022;2024-03-17T04:18:23;9.10;99.90
14397;DHT22;50653;47.810;13.022;2024-03-17T04:20:53;9.00;99.90
14397;DHT22;50653;47.810;13.022;2024-03-17T04:23:23;9.00;99.90
14397;DHT22;50653;47.810;13.022;2024-03-17T04:25:51;8.90;99.90
14397;DHT22;50653;47.810;13.022;2024-03-17T04:28:17;8.80;99.90
14397;DHT22;50653;47.810;13.022;2024-03-17T04:30:43;8.60;99.90
14397;DHT22;50653;47.810;13.022;2024-03-17T04:33:09;8.70;99.90
14397;DHT22;50653;47.810;13.022;2024-03-17T04:35:37;8.80;99.90
14397;DHT22;50653;47.810;13.022;2024-03-17T04:38:03;8.80;99.90
14397;DHT22;50653;47.810;13.022;2024-03-17T04:40:29;8.80;99.90
14397;DHT22;50653;47.810;13.022;2024-03-17T04:42:54;8.80;99.90
14397;DHT22;50653;47.810;13.022;2024-03-17T04:45:20;8.60;99.90
14397;DHT22;50653;47.810;13.022;2024-03-17T04:47:46;8.60;99.90
14397;DHT22;50653;47.810;13.022;2024-03-17T04:50:13;8.40;99.90
14397;DHT22;50653;47.810;13.022;2024-03-17T04:52:38;8.50;99.90
14397;DHT22;50653;47.810;13.022;2024-03-17T04:55:04;8.60;99.90
14397;DHT22;50653;47.810;13.022;2024-03-17T04:57:30;8.60;99.90
14397;DHT22;50653;47.810;13.022;2024-03-17T04:59:56;8.80;99.90
14397;DHT22;50653;47.810;13.022;2024-03-17T05:02:21;8.60;99.90
14397;DHT22;50653;47.810;13.022;2024-03-17T05:04:49;8.50;99.90
14397;DHT22;50653;47.810;13.022;2024-03-17T05:07:15;8.50;99.90
14397;DHT22;50653;47.810;13.022;2024-03-17T05:09:41;8.50;99.90
14397;DHT22;50653;47.810;13.022;2024-03-17T05:12:09;8.50;99.90
14397;DHT22;50653;47.810;13.022;2024-03-17T05:14:35;8.40;99.90
14397;DHT22;50653;47.810;13.022;2024-03-17T05:17:01;8.40;99.90
14397;DHT22;50653;47.810;13.022;2024-03-17T05:19:27;8.30;99.90
14397;DHT22;50653;47.810;13.022;2024-03-17T05:21:53;8.20;99.90
14397;DHT22;50653;47.810;13.022;2024-03-17T05:24:18;8.20;99.90
14397;DHT22;50653;47.810;13.022;2024-03-17T05:26:45;8.20;99.90
14397;DHT22;50653;47.810;13.022;2024-03-17T05:29:11;8.30;99.90
14397;DHT22;50653;47.810;13.022;2024-03-17T05:31:37;8.40;99.90
14397;DHT22;50653;47.810;13.022;2024-03-17T05:34:08;8.40;99.90
14397;DHT22;50653;47.810;13.022;2024-03-17T05:36:36;8.50;99.90
14397;DHT22;50653;47.810;13.022;2024-03-17T05:39:02;8.60;99.90
14397;DHT22;50653;47.810;13.022;2024-03-17T05:41:28;8.50;99.90
14397;DHT22;50653;47.810;13.022;2024-03-17T05:43:53;8.50;99.90
14397;DHT22;50653;47.810;13.022;2024-03-17T05:46:24;8.40;99.90
14397;DHT22;50653;47.810;13.022;2024-03-17T05:48:50;8.40;99.90
14397;DHT22;50653;47.810;13.022;2024-03-17T05:51:16;8.60;99.90
14397;DHT22;50653;47.810;13.022;2024-03-17T05:53:42;8.70;99.90
14397;DHT22;50653;47.810;13.022;2024-03-17T05:56:10;8.80;99.90
14397;DHT22;50653;47.810;13.022;2024-03-17T05:58:37;8.80;99.90
14397;DHT22;50653;47.810;13.022;2024-03-17T06:01:03;8.80;99.90
14397;DHT22;50653;47.810;13.022;2024-03-17T06:03:29;8.60;99.90
14397;DHT22;50653;47.810;13.022;2024-03-17T06:05:55;8.60;99.90
14397;DHT22;50653;47.810;13.022;2024-03-17T06:08:20;8.70;99.90
14397;DHT22;50653;47.810;13.022;2024-03-17T06:10:49;8.70;99.90
14397;DHT22;50653;47.810;13.022;2024-03-17T06:13:15;8.60;99.90
14397;DHT22;50653;47.810;13.022;2024-03-17T06:15:45;8.40;99.90
14397;DHT22;50653;47.810;13.022;2024-03-17T06:18:14;8.50;99.90
14397;DHT22;50653;47.810;13.022;2024-03-17T06:20:46;8.50;99.90
14397;DHT22;50653;47.810;13.022;2024-03-17T06:23:13;8.60;99.90
14397;DHT22;50653;47.810;13.022;2024-03-17T06:25:44;8.60;99.90
14397;DHT22;50653;47.810;13.022;2024-03-17T06:28:10;8.80;99.90
14397;DHT22;50653;47.810;13.022;2024-03-17T06:30:44;8.80;99.90
14397;DHT22;50653;47.810;13.022;2024-03-17T06:33:16;8.80;99.90
14397;DHT22;50653;47.810;13.022;2024-03-17T06:35:42;8.70;99.90
14397;DHT22;50653;47.810;13.022;2024-03-17T06:38:07;8.60;99.90
14397;DHT22;50653;47.810;13.022;2024-03-17T06:40:37;8.80;99.90
14397;DHT22;50653;47.810;13.022;2024-03-17T06:43:02;8.80;99.90
14397;DHT22;50653;47.810;13.022;2024-03-17T06:45:28;8.80;99.90
14397;DHT22;50653;47.810;13.022;2024-03-17T06:47:54;8.90;99.90
14397;DHT22;50653;47.810;13.022;2024-03-17T06:50:21;9.00;99.90
14397;DHT22;50653;47.810;13.022;2024-03-17T06:52:47;8.90;99.90
14397;DHT22;50653;47.810;13.022;2024-03-17T06:55:13;8.90;99.90
14397;DHT22;50653;47.810;13.022;2024-03-17T06:57:41;9.00;99.90
14397;DHT22;50653;47.810;13.022;2024-03-17T07:00:12;9.00;99.90
14397;DHT22;50653;47.810;13.022;2024-03-17T07:02:42;9.10;99.90
14397;DHT22;50653;47.810;13.022;2024-03-17T07:05:14;9.20;99.90
14397;DHT22;50653;47.810;13.022;2024-03-17T07:07:41;9.30;99.90
14397;DHT22;50653;47.810;13.022;2024-03-17T07:10:07;9.30;99.90
14397;DHT22;50653;47.810;13.022;2024-03-17T07:12:34;9.40;99.90
14397;DHT22;50653;47.810;13.022;2024-03-17T07:14:59;9.40;99.90
14397;DHT22;50653;47.810;13.022;2024-03-17T07:17:25;9.50;99.90
14397;DHT22;50653;47.810;13.022;2024-03-17T07:19:51;9.60;99.90
14397;DHT22;50653;47.810;13.022;2024-03-17T07:22:16;9.50;99.90
14397;DHT22;50653;47.810;13.022;2024-03-17T07:24:43;9.50;99.90
14397;DHT22;50653;47.810;13.022;2024-03-17T07:27:10;9.60;99.90
14397;DHT22;50653;47.810;13.022;2024-03-17T07:29:39;9.60;99.90
14397;DHT22;50653;47.810;13.022;2024-03-17T07:32:05;9.60;99.90
14397;DHT22;50653;47.810;13.022;2024-03-17T07:34:31;9.60;99.90
14397;DHT22;50653;47.810;13.022;2024-03-17T07:36:58;9.70;99.90
14397;DHT22;50653;47.810;13.022;2024-03-17T07:39:32;9.80;99.90
14397;DHT22;50653;47.810;13.022;2024-03-17T07:42:01;9.80;99.90
14397;DHT22;50653;47.810;13.022;2024-03-17T07:44:28;9.90;99.90
14397;DHT22;50653;47.810;13.022;2024-03-17T07:46:58;10.10;99.90
14397;DHT22;50653;47.810;13.022;2024-03-17T07:49:24;10.10;99.90
14397;DHT22;50653;47.810;13.022;2024-03-17T07:51:50;10.10;99.90
14397;DHT22;50653;47.810;13.022;2024-03-17T07:54:15;10.10;99.90
14397;DHT22;50653;47.810;13.022;2024-03-17T07:56:41;10.20;99.90
14397;DHT22;50653;47.810;13.022;2024-03-17T07:59:07;10.10;99.90
14397;DHT22;50653;47.810;13.022;2024-03-17T08:01:38;10.10;99.90
14397;DHT22;50653;47.810;13.022;2024-03-17T08:04:04;10.20;99.90
14397;DHT22;50653;47.810;13.022;2024-03-17T08:06:30;10.10;99.90
14397;DHT22;50653;47.810;13.022;2024-03-17T08:08:56;10.10;99.90
14397;DHT22;50653;47.810;13.022;2024-03-17T08:11:23;10.10;99.90
14397;DHT22;50653;47.810;13.022;2024-03-17T08:13:48;10.20;99.90
14397;DHT22;50653;47.810;13.022;2024-03-17T08:16:14;10.20;99.90
14397;DHT22;50653;47.810;13.022;2024-03-17T08:18:41;10.20;99.90
14397;DHT22;50653;47.810;13.022;2024-03-17T08:21:06;10.20;99.90
14397;DHT22;50653;47.810;13.022;2024-03-17T08:23:35;10.30;99.90
14397;DHT22;50653;47.810;13.022;2024-03-17T08:26:07;10.30;99.90
14397;DHT22;50653;47.810;13.022;2024-03-17T08:28:32;10.40;99.90
14397;DHT22;50653;47.810;13.022;2024-03-17T08:31:02;10.40;99.90
14397;DHT22;50653;47.810;13.022;2024-03-17T08:33:29;10.40;99.90
14397;DHT22;50653;47.810;13.022;2024-03-17T08:35:55;10.50;99.90
14397;DHT22;50653;47.810;13.022;2024-03-17T08:38:22;10.60;99.90
14397;DHT22;50653;47.810;13.022;2024-03-17T08:40:52;10.60;99.90
14397;DHT22;50653;47.810;13.022;2024-03-17T08:43:18;10.60;99.90
14397;DHT22;50653;47.810;13.022;2024-03-17T08:45:45;10.70;99.90
14397;DHT22;50653;47.810;13.022;2024-03-17T08:48:11;10.70;99.90
14397;DHT22;50653;47.810;13.022;2024-03-17T08:50:37;10.80;99.90
14397;DHT22;50653;47.810;13.022;2024-03-17T08:53:03;10.80;99.90
14397;DHT22;50653;47.810;13.022;2024-03-17T08:55:28;10.90;99.90
14397;DHT22;50653;47.810;13.022;2024-03-17T08:57:54;10.90;99.90
14397;DHT22;50653;47.810;13.022;2024-03-17T09:00:20;11.00;99.90
14397;DHT22;50653;47.810;13.022;2024-03-17T09:02:45;11.10;99.90
14397;DHT22;50653;47.810;13.022;2024-03-17T09:05:11;11.10;99.90
14397;DHT22;50653;47.810;13.022;2024-03-17T09:07:38;11.20;99.90
14397;DHT22;50653;47.810;13.022;2024-03-17T09:10:05;11.20;99.90
14397;DHT22;50653;47.810;13.022;2024-03-17T09:12:31;11.20;99.90
14397;DHT22;50653;47.810;13.022;2024-03-17T09:14:57;11.30;99.90
14397;DHT22;50653;47.810;13.022;2024-03-17T09:17:23;11.30;99.90
14397;DHT22;50653;47.810;13.022;2024-03-17T09:19:49;11.30;99.90
14397;DHT22;50653;47.810;13.022;2024-03-17T09:22:14;11.30;99.90
14397;DHT22;50653;47.810;13.022;2024-03-17T09:24:40;11.30;99.90
14397;DHT22;50653;47.810;13.022;2024-03-17T09:27:06;11.30;99.90
14397;DHT22;50653;47.810;13.022;2024-03-17T09:29:32;11.40;99.90
14397;DHT22;50653;47.810;13.022;2024-03-17T09:31:58;11.40;99.90
14397;DHT22;50653;47.810;13.022;2024-03-17T09:34:24;11.40;99.90
14397;DHT22;50653;47.810;13.022;2024-03-17T09:36:50;11.50;99.90
14397;DHT22;50653;47.810;13.022;2024-03-17T09:39:16;11.60;99.90
14397;DHT22;50653;47.810;13.022;2024-03-17T09:41:42;11.60;99.90
14397;DHT22;50653;47.810;13.022;2024-03-17T09:44:12;11.60;99.90
14397;DHT22;50653;47.810;13.022;2024-03-17T09:46:41;11.60;99.90
14397;DHT22;50653;47.810;13.022;2024-03-17T09:49:15;11.80;99.90
14397;DHT22;50653;47.810;13.022;2024-03-17T09:51:42;11.90;99.90
14397;DHT22;50653;47.810;13.022;2024-03-17T09:54:18;11.90;99.90
14397;DHT22;50653;47.810;13.022;2024-03-17T09:56:47;11.70;99.90
14397;DHT22;50653;47.810;13.022;2024-03-17T09:59:13;11.70;99.90
14397;DHT22;50653;47.810;13.022;2024-03-17T10:01:38;11.70;99.90
14397;DHT22;50653;47.810;13.022;2024-03-17T10:04:04;11.80;99.90
14397;DHT22;50653;47.810;13.022;2024-03-17T10:06:30;11.80;99.90
14397;DHT22;50653;47.810;13.022;2024-03-17T10:09:00;11.80;99.90
14397;DHT22;50653;47.810;13.022;2024-03-17T10:11:38;11.80;99.90
14397;DHT22;50653;47.810;13.022;2024-03-17T10:14:10;11.90;99.90
14397;DHT22;50653;47.810;13.022;2024-03-17T10:16:38;11.90;99.90
14397;DHT22;50653;47.810;13.022;2024-03-17T10:19:11;11.90;99.90
14397;DHT22;50653;47.810;13.022;2024-03-17T10:21:42;11.90;99.90
14397;DHT22;50653;47.810;13.022;2024-03-17T10:24:20;11.90;99.90
14397;DHT22;50653;47.810;13.022;2024-03-17T10:34:22;12.00;99.90
14397;DHT22;50653;47.810;13.022;2024-03-17T10:37:13;12.00;99.90
14397;DHT22;50653;47.810;13.022;2024-03-17T10:39:41;12.00;99.90
14397;DHT22;50653;47.810;13.022;2024-03-17T10:42:08;12.00;99.90
14397;DHT22;50653;47.810;13.022;2024-03-17T10:44:37;12.10;99.90
14397;DHT22;50653;47.810;13.022;2024-03-17T10:47:03;12.20;99.90
14397;DHT22;50653;47.810;13.022;2024-03-17T10:49:36;12.20;99.90
14397;DHT22;50653;47.810;13.022;2024-03-17T10:52:05;12.20;99.90
14397;DHT22;50653;47.810;13.022;2024-03-17T10:54:31;12.20;99.90
14397;DHT22;50653;47.810;13.022;2024-03-17T10:59:40;12.20;99.90
14397;DHT22;50653;47.810;13.022;2024-03-17T11:02:22;12.30;99.90
14397;DHT22;50653;47.810;13.022;2024-03-17T11:07:37;12.20;99.90
14397;DHT22;50653;47.810;13.022;2024-03-17T11:10:05;12.20;99.90
14397;DHT22;50653;47.810;13.022;2024-03-17T11:12:42;12.20;99.90
14397;DHT22;50653;47.810;13.022;2024-03-17T11:20:35;12.30;99.90
14397;DHT22;50653;47.810;13.022;2024-03-17T11:23:01;12.40;99.90
14397;DHT22;50653;47.810;13.022;2024-03-17T11:28:09;12.50;99.90
14397;DHT22;50653;47.810;13.022;2024-03-17T11:39:01;12.60;99.90
14397;DHT22;50653;47.810;13.022;2024-03-17T11:46:59;12.80;99.90
14397;DHT22;50653;47.810;13.022;2024-03-17T11:51:57;12.90;99.90
14397;DHT22;50653;47.810;13.022;2024-03-17T11:54:27;12.90;99.90
14397;DHT22;50653;47.810;13.022;2024-03-17T11:57:01;13.10;99.90
14397;DHT22;50653;47.810;13.022;2024-03-17T11:59:28;13.10;99.90
14397;DHT22;50653;47.810;13.022;2024-03-17T12:01:54;13.10;99.90
14397;DHT22;50653;47.810;13.022;2024-03-17T12:04:21;13.20;99.90
14397;DHT22;50653;47.810;13.022;2024-03-17T12:06:59;13.30;99.90
14397;DHT22;50653;47.810;13.022;2024-03-17T12:09:27;13.20;99.90
14397;DHT22;50653;47.810;13.022;2024-03-17T12:12:28;13.30;99.90
14397;DHT22;50653;47.810;13.022;2024-03-17T12:15:01;13.40;99.90
14397;DHT22;50653;47.810;13.022;2024-03-17T12:17:28;13.50;99.90
14397;DHT22;50653;47.810;13.022;2024-03-17T12:19:53;13.50;99.90
14397;DHT22;50653;47.810;13.022;2024-03-17T12:22:22;13.60;99.90
14397;DHT22;50653;47.810;13.022;2024-03-17T12:24:49;13.60;99.90
14397;DHT22;50653;47.810;13.022;2024-03-17T12:27:19;13.80;99.90
14397;DHT22;50653;47.810;13.022;2024-03-17T12:29:47;14.00;99.90
14397;DHT22;50653;47.810;13.022;2024-03-17T12:32:24;13.90;99.90
14397;DHT22;50653;47.810;13.022;2024-03-17T12:34:51;14.00;99.90
14397;DHT22;50653;47.810;13.022;2024-03-17T12:37:19;14.00;99.90
14397;DHT22;50653;47.810;13.022;2024-03-17T12:39:46;14.10;99.90
14397;DHT22;50653;47.810;13.022;2024-03-17T12:44:39;14.20;99.90
14397;DHT22;50653;47.810;13.022;2024-03-17T12:47:16;13.80;99.90
14397;DHT22;50653;47.810;13.022;2024-03-17T12:50:00;13.90;99.90
14397;DHT22;50653;47.810;13.022;2024-03-17T12:52:28;14.10;99.90
14397;DHT22;50653;47.810;13.022;2024-03-17T12:55:04;14.10;99.90
14397;DHT22;50653;47.810;13.022;2024-03-17T13:03:42;14.50;99.90
14397;DHT22;50653;47.810;13.022;2024-03-17T13:06:13;14.70;99.90
14397;DHT22;50653;47.810;13.022;2024-03-17T13:08:48;14.70;99.90
14397;DHT22;50653;47.810;13.022;2024-03-17T13:11:14;14.70;99.90
14397;DHT22;50653;47.810;13.022;2024-03-17T13:13:40;14.70;99.90
14397;DHT22;50653;47.810;13.022;2024-03-17T13:16:05;14.70;99.90
14397;DHT22;50653;47.810;13.022;2024-03-17T13:18:32;14.80;99.90
14397;DHT22;50653;47.810;13.022;2024-03-17T13:20:58;14.90;99.90
14397;DHT22;50653;47.810;13.022;2024-03-17T13:23:24;14.80;99.90
14397;DHT22;50653;47.810;13.022;2024-03-17T13:25:50;14.80;99.90
14397;DHT22;50653;47.810;13.022;2024-03-17T13:28:16;14.90;99.90
14397;DHT22;50653;47.810;13.022;2024-03-17T13:30:42;15.00;99.90
14397;DHT22;50653;47.810;13.022;2024-03-17T13:33:08;14.90;99.90
14397;DHT22;50653;47.810;13.022;2024-03-17T13:35:35;14.90;99.90
14397;DHT22;50653;47.810;13.022;2024-03-17T13:38:05;14.90;99.90
14397;DHT22;50653;47.810;13.022;2024-03-17T13:40:32;15.00;99.90
14397;DHT22;50653;47.810;13.022;2024-03-17T13:42:58;15.10;99.90
14397;DHT22;50653;47.810;13.022;2024-03-17T13:45:27;15.10;99.90
14397;DHT22;50653;47.810;13.022;2024-03-17T13:48:02;15.00;99.90
14397;DHT22;50653;47.810;13.022;2024-03-17T13:50:29;14.90;99.90
14397;DHT22;50653;47.810;13.022;2024-03-17T13:52:56;15.00;99.90
14397;DHT22;50653;47.810;13.022;2024-03-17T13:55:23;15.10;99.90
14397;DHT22;50653;47.810;13.022;2024-03-17T13:57:54;15.20;99.90
14397;DHT22;50653;47.810;13.022;2024-03-17T14:00:21;15.20;99.90
14397;DHT22;50653;47.810;13.022;2024-03-17T14:02:47;14.90;99.90
14397;DHT22;50653;47.810;13.022;2024-03-17T14:05:16;14.80;99.90
14397;DHT22;50653;47.810;13.022;2024-03-17T14:07:42;14.80;99.90
14397;DHT22;50653;47.810;13.022;2024-03-17T14:10:09;14.90;99.90
14397;DHT22;50653;47.810;13.022;2024-03-17T14:12:38;14.80;99.90
14397;DHT22;50653;47.810;13.022;2024-03-17T14:15:05;14.80;99.90
14397;DHT22;50653;47.810;13.022;2024-03-17T14:17:31;14.80;99.90
14397;DHT22;50653;47.810;13.022;2024-03-17T14:19:58;14.80;99.90
14397;DHT22;50653;47.810;13.022;2024-03-17T14:22:24;14.80;99.90
14397;DHT22;50653;47.810;13.022;2024-03-17T14:24:49;14.70;99.90
14397;DHT22;50653;47.810;13.022;2024-03-17T14:27:15;14.60;99.90
14397;DHT22;50653;47.810;13.022;2024-03-17T14:29:43;14.70;99.90
14397;DHT22;50653;47.810;13.022;2024-03-17T14:32:08;14.60;99.90
14397;DHT22;50653;47.810;13.022;2024-03-17T14:34:34;14.40;99.90
14397;DHT22;50653;47.810;13.022;2024-03-17T14:37:02;14.50;99.90
14397;DHT22;50653;47.810;13.022;2024-03-17T14:39:32;14.30;99.90
14397;DHT22;50653;47.810;13.022;2024-03-17T14:41:57;14.30;99.90
14397;DHT22;50653;47.810;13.022;2024-03-17T14:44:23;14.40;99.90
14397;DHT22;50653;47.810;13.022;2024-03-17T14:46:49;14.50;99.90
14397;DHT22;50653;47.810;13.022;2024-03-17T14:49:20;14.50;99.90
14397;DHT22;50653;47.810;13.022;2024-03-17T14:51:45;14.50;99.90
14397;DHT22;50653;47.810;13.022;2024-03-17T14:54:11;14.70;99.90
14397;DHT22;50653;47.810;13.022;2024-03-17T14:56:38;14.70;99.90
14397;DHT22;50653;47.810;13.022;2024-03-17T14:59:05;14.50;99.90
14397;DHT22;50653;47.810;13.022;2024-03-17T15:01:31;14.50;99.90
14397;DHT22;50653;47.810;13.022;2024-03-17T15:03:57;14.60;99.90
14397;DHT22;50653;47.810;13.022;2024-03-17T15:06:23;14.50;99.90
14397;DHT22;50653;47.810;13.022;2024-03-17T15:08:50;14.60;99.90
14397;DHT22;50653;47.810;13.022;2024-03-17T15:11:16;14.60;99.90
14397;DHT22;50653;47.810;13.022;2024-03-17T15:13:43;14.70;99.90
14397;DHT22;50653;47.810;13.022;2024-03-17T15:16:09;14.70;99.90
14397;DHT22;50653;47.810;13.022;2024-03-17T15:18:35;14.60;99.90
14397;DHT22;50653;47.810;13.022;2024-03-17T15:21:01;14.40;99.90
14397;DHT22;50653;47.810;13.022;2024-03-17T15:23:27;14.40;99.90
14397;DHT22;50653;47.810;13.022;2024-03-17T15:26:06;14.40;99.90
14397;DHT22;50653;47.810;13.022;2024-03-17T15:28:36;14.30;99.90
14397;DHT22;50653;47.810;13.022;2024-03-17T15:31:06;14.40;99.90
14397;DHT22;50653;47.810;13.022;2024-03-17T15:33:33;14.40;99.90
14397;DHT22;50653;47.810;13.022;2024-03-17T15:36:06;14.40;99.90
14397;DHT22;50653;47.810;13.022;2024-03-17T15:38:32;14.40;99.90
14397;DHT22;50653;47.810;13.022;2024-03-17T15:41:06;14.30;99.90
14397;DHT22;50653;47.810;13.022;2024-03-17T15:43:44;14.30;99.90
14397;DHT22;50653;47.810;13.022;2024-03-17T15:46:15;14.30;99.90
14397;DHT22;50653;47.810;13.022;2024-03-17T15:48:44;14.10;99.90
14397;DHT22;50653;47.810;13.022;2024-03-17T15:51:11;14.10;99.90
14397;DHT22;50653;47.810;13.022;2024-03-17T15:53:37;14.20;99.90
14397;DHT22;50653;47.810;13.022;2024-03-17T15:56:04;14.30;99.90
14397;DHT22;50653;47.810;13.022;2024-03-17T15:58:31;14.30;99.90
14397;DHT22;50653;47.810;13.022;2024-03-17T16:00:57;14.20;99.90
14397;DHT22;50653;47.810;13.022;2024-03-17T16:03:29;14.20;99.90
14397;DHT22;50653;47.810;13.022;2024-03-17T16:05:59;14.10;99.90
14397;DHT22;50653;47.810;13.022;2024-03-17T16:08:25;14.00;99.90
14397;DHT22;50653;47.810;13.022;2024-03-17T16:10:55;14.00;99.90